createdAt,value
2018-01-21T00:02:27.089Z,20.63
2018-01-21T00:04:55.726Z,19.97
2018-01-21T00:07:23.246Z,19.60
2018-01-21T00:09:51.129Z,19.73
2018-01-21T00:12:18.679Z,19.20
2018-01-21T00:14:46.197Z,16.63
2018-01-21T00:17:13.782Z,18.57
2018-01-21T00:19:41.385Z,17.40
2018-01-21T00:22:08.968Z,17.37
2018-01-21T00:24:36.569Z,17.10
2018-01-21T00:27:04.252Z,17.00
2018-01-21T00:29:32.017Z,15.43
2018-01-21T00:32:01.829Z,15.30
2018-01-21T00:34:29.491Z,16.37
2018-01-21T00:36:57.074Z,16.57
2018-01-21T00:39:24.633Z,16.90
2018-01-21T00:41:52.173Z,16.70
2018-01-21T00:44:19.692Z,17.30
2018-01-21T00:46:47.977Z,16.63
2018-01-21T00:49:16.276Z,17.83
2018-01-21T00:51:43.806Z,17.47
2018-01-21T00:54:12.426Z,17.10
2018-01-21T00:56:39.994Z,17.07
2018-01-21T00:59:07.567Z,16.97
2018-01-21T01:01:35.153Z,18.10
2018-01-21T01:04:03.182Z,17.47
2018-01-21T01:06:31.151Z,19.00
2018-01-21T01:08:58.763Z,17.90
2018-01-21T01:11:26.282Z,18.17
2018-01-21T01:13:53.813Z,19.27
2018-01-21T01:16:21.331Z,18.97
2018-01-21T01:18:48.892Z,18.87
2018-01-21T01:21:17.188Z,20.40
2018-01-21T01:23:45.477Z,21.90
2018-01-21T01:26:13.797Z,20.27
2018-01-21T01:28:41.326Z,16.23
2018-01-21T01:31:08.930Z,20.10
2018-01-21T01:33:36.507Z,19.70
2018-01-21T01:36:04.329Z,20.13
2018-01-21T01:38:32.149Z,17.27
2018-01-21T01:41:00.520Z,16.67
2018-01-21T01:43:28.109Z,18.93
2018-01-21T01:45:56.397Z,19.17
2018-01-21T01:48:23.921Z,19.73
2018-01-21T01:50:51.467Z,15.90
2018-01-21T01:53:19.000Z,20.27
2018-01-21T01:55:46.841Z,19.97
2018-01-21T01:58:14.385Z,19.73
2018-01-21T02:00:42.695Z,18.37
2018-01-21T02:03:10.288Z,19.93
2018-01-21T02:05:37.938Z,19.47
2018-01-21T02:08:05.682Z,19.07
2018-01-21T02:10:33.466Z,19.50
2018-01-21T02:13:01.289Z,18.73
2018-01-21T02:15:28.956Z,19.50
2018-01-21T02:17:57.236Z,18.70
2018-01-21T02:20:24.772Z,19.80
2018-01-21T02:22:53.057Z,18.17
2018-01-21T02:25:20.648Z,19.10
2018-01-21T02:27:48.180Z,19.53
2018-01-21T02:30:16.456Z,15.67
2018-01-21T02:32:44.773Z,16.57
2018-01-21T02:35:12.373Z,16.40
2018-01-21T02:37:40.481Z,10.70
2018-01-21T02:40:08.029Z,15.43
2018-01-21T02:42:35.628Z,17.33
2018-01-21T02:45:03.710Z,18.27
2018-01-21T02:47:31.454Z,17.10
2018-01-21T02:50:00.048Z,17.17
2018-01-21T02:52:27.685Z,18.57
2018-01-21T02:54:55.209Z,19.37
2018-01-21T02:57:23.909Z,20.60
2018-01-21T02:59:52.193Z,19.73
2018-01-21T03:02:20.480Z,20.63
2018-01-21T03:04:48.778Z,18.53
2018-01-21T03:07:16.325Z,19.80
2018-01-21T03:09:43.897Z,19.97
2018-01-21T03:12:11.560Z,20.40
2018-01-21T03:14:39.144Z,21.30
2018-01-21T03:17:06.731Z,20.10
2018-01-21T03:19:34.533Z,17.00
2018-01-21T03:22:02.517Z,17.63
2018-01-21T03:24:30.487Z,16.43
2018-01-21T03:26:58.025Z,17.20
2018-01-21T03:29:25.566Z,18.40
2018-01-21T03:31:53.858Z,17.10
2018-01-21T03:34:22.161Z,18.97
2018-01-21T03:36:49.693Z,17.70
2018-01-21T03:39:17.981Z,16.87
2018-01-21T03:41:45.521Z,17.53
2018-01-21T03:44:13.821Z,17.37
2018-01-21T03:46:41.410Z,18.17
2018-01-21T03:49:09.056Z,19.47
2018-01-21T03:51:36.797Z,18.17
2018-01-21T03:54:04.776Z,19.13
2018-01-21T03:56:32.862Z,18.93
2018-01-21T03:59:00.629Z,19.43
2018-01-21T04:01:28.171Z,19.00
2018-01-21T04:03:55.694Z,19.77
2018-01-21T04:06:24.006Z,19.90
2018-01-21T04:08:51.556Z,21.27
2018-01-21T04:11:20.173Z,21.17
2018-01-21T04:13:47.700Z,20.37
2018-01-21T04:16:15.980Z,19.87
2018-01-21T04:18:44.281Z,20.53
2018-01-21T04:21:11.853Z,21.00
2018-01-21T04:23:39.505Z,22.50
2018-01-21T04:26:07.329Z,23.63
2018-01-21T04:28:35.205Z,25.07
2018-01-21T04:31:03.108Z,24.03
2018-01-21T04:33:30.917Z,23.70
2018-01-21T04:35:58.538Z,22.40
2018-01-21T04:38:26.053Z,20.00
2018-01-21T04:40:54.336Z,20.17
2018-01-21T04:43:22.637Z,20.50
2018-01-21T04:45:50.176Z,18.17
2018-01-21T04:48:18.586Z,16.80
2018-01-21T04:50:46.177Z,16.83
2018-01-21T04:53:14.027Z,15.53
2018-01-21T04:55:41.705Z,18.40
2018-01-21T04:58:09.295Z,15.80
2018-01-21T05:00:36.974Z,16.43
2018-01-21T05:03:04.887Z,15.00
2018-01-21T05:05:32.612Z,13.57
2018-01-21T05:08:00.499Z,15.20
2018-01-21T05:10:28.022Z,15.23
2018-01-21T05:12:56.308Z,13.10
2018-01-21T05:15:24.613Z,14.30
2018-01-21T05:17:52.135Z,13.33
2018-01-21T05:20:19.676Z,13.93
2018-01-21T05:22:47.213Z,13.73
2018-01-21T05:25:14.765Z,14.40
2018-01-21T05:27:42.619Z,13.60
2018-01-21T05:30:10.312Z,13.20
2018-01-21T05:32:38.096Z,14.23
2018-01-21T05:35:06.136Z,15.30
2018-01-21T05:37:34.023Z,14.30
2018-01-21T05:40:02.525Z,14.17
2018-01-21T05:42:31.666Z,14.80
2018-01-21T05:44:59.238Z,14.43
2018-01-21T05:47:28.483Z,14.27
2018-01-21T05:49:56.623Z,15.43
2018-01-21T05:52:24.568Z,14.77
2018-01-21T05:54:52.116Z,13.87
2018-01-21T05:57:19.686Z,13.57
2018-01-21T05:59:47.206Z,14.00
2018-01-21T06:02:15.501Z,15.77
2018-01-21T06:04:43.813Z,14.63
2018-01-21T06:07:11.757Z,13.70
2018-01-21T06:09:40.125Z,15.00
2018-01-21T06:12:08.150Z,14.90
2018-01-21T06:14:37.215Z,13.20
2018-01-21T06:17:05.820Z,13.70
2018-01-21T06:19:34.179Z,14.63
2018-01-21T06:22:02.056Z,15.50
2018-01-21T06:24:29.711Z,15.10
2018-01-21T06:26:58.217Z,15.67
2018-01-21T06:29:26.466Z,14.33
2018-01-21T06:31:54.509Z,15.33
2018-01-21T06:34:22.088Z,15.27
2018-01-21T06:36:49.622Z,14.63
2018-01-21T06:39:17.914Z,14.70
2018-01-21T06:41:45.479Z,14.17
2018-01-21T06:44:13.032Z,14.27
2018-01-21T06:46:40.933Z,14.43
2018-01-21T06:49:09.277Z,14.73
2018-01-21T06:51:37.067Z,15.83
2018-01-21T06:54:05.068Z,15.07
2018-01-21T06:56:32.911Z,15.70
2018-01-21T06:59:00.793Z,15.97
2018-01-21T07:01:29.136Z,16.37
2018-01-21T07:03:57.037Z,16.70
2018-01-21T07:06:25.877Z,15.57
2018-01-21T07:08:54.914Z,16.70
2018-01-21T07:11:22.977Z,16.43
2018-01-21T07:13:50.553Z,18.93
2018-01-21T07:16:18.280Z,18.00
2018-01-21T07:18:45.831Z,19.03
2018-01-21T07:21:14.189Z,17.47
2018-01-21T07:23:41.744Z,17.83
2018-01-21T07:26:09.589Z,16.00
2018-01-21T07:28:37.236Z,17.47
2018-01-21T07:31:05.181Z,17.50
2018-01-21T07:33:33.105Z,15.80
2018-01-21T07:36:01.081Z,16.67
2018-01-21T07:38:28.695Z,17.17
2018-01-21T07:40:56.220Z,16.63
2018-01-21T07:43:24.537Z,15.90
2018-01-21T07:45:52.067Z,17.10
2018-01-21T07:48:19.619Z,15.43
2018-01-21T07:50:47.176Z,17.07
2018-01-21T07:53:14.723Z,16.93
2018-01-21T07:55:42.377Z,17.23
2018-01-21T07:58:10.875Z,16.37
2018-01-21T08:00:39.241Z,16.97
2018-01-21T08:03:07.441Z,16.13
2018-01-21T08:05:38.063Z,16.27
2018-01-21T08:08:06.972Z,18.23
2018-01-21T08:10:35.421Z,17.77
2018-01-21T08:13:07.943Z,17.00
2018-01-21T08:15:37.092Z,18.73
2018-01-21T08:18:05.285Z,17.90
2018-01-21T08:20:33.074Z,16.73
2018-01-21T08:23:02.248Z,18.10
2018-01-21T08:25:29.919Z,18.77
2018-01-21T08:27:57.456Z,18.47
2018-01-21T08:30:25.627Z,19.43
2018-01-21T08:32:53.369Z,16.63
2018-01-21T08:35:26.795Z,19.23
2018-01-21T08:38:00.238Z,17.30
2018-01-21T08:40:34.997Z,18.63
2018-01-21T08:43:03.204Z,17.73
2018-01-21T08:45:32.416Z,18.23
2018-01-21T08:48:00.886Z,19.37
2018-01-21T08:50:29.240Z,18.83
2018-01-21T08:52:57.447Z,16.93
2018-01-21T08:55:25.438Z,17.30
2018-01-21T08:57:53.104Z,16.63
2018-01-21T09:00:20.701Z,16.63
2018-01-21T09:02:48.262Z,15.50
2018-01-21T09:05:15.792Z,17.20
2018-01-21T09:07:43.320Z,16.70
2018-01-21T09:10:10.898Z,16.50
2018-01-21T09:12:38.624Z,17.17
2018-01-21T09:15:06.317Z,16.13
2018-01-21T09:17:34.601Z,15.93
2018-01-21T09:20:03.275Z,15.63
2018-01-21T09:22:32.448Z,16.03
2018-01-21T09:25:00.416Z,16.57
2018-01-21T09:27:27.997Z,17.33
2018-01-21T09:29:55.524Z,17.77
2018-01-21T09:32:23.073Z,16.43
2018-01-21T09:34:50.596Z,17.47
2018-01-21T09:37:18.933Z,15.70
2018-01-21T09:39:46.799Z,16.97
2018-01-21T09:42:15.346Z,16.53
2018-01-21T09:44:43.360Z,19.30
2018-01-21T09:47:11.321Z,18.00
2018-01-21T09:49:39.821Z,18.00
2018-01-21T09:52:08.426Z,18.43
2018-01-21T09:54:37.086Z,18.07
2018-01-21T09:57:05.218Z,17.13
2018-01-21T09:59:33.539Z,17.97
2018-01-21T10:02:01.192Z,16.70
2018-01-21T10:04:29.804Z,17.77
2018-01-21T10:06:59.102Z,16.20
2018-01-21T10:09:27.006Z,15.57
2018-01-21T10:11:55.560Z,15.27
2018-01-21T10:14:24.110Z,13.23
2018-01-21T10:16:53.533Z,12.77
2018-01-21T10:19:21.381Z,12.37
2018-01-21T10:21:49.146Z,13.43
2018-01-21T10:24:18.061Z,12.87
2018-01-21T10:26:45.694Z,12.67
2018-01-21T10:29:13.224Z,10.87
2018-01-21T10:31:41.030Z,11.60
2018-01-21T10:34:08.550Z,10.90
2018-01-21T10:36:36.854Z,11.93
2018-01-21T10:39:04.377Z,10.80
2018-01-21T10:41:31.925Z,10.13
2018-01-21T10:43:59.458Z,11.50
2018-01-21T10:46:27.326Z,10.70
2018-01-21T10:48:55.274Z,10.53
2018-01-21T10:51:23.462Z,9.37
2018-01-21T10:53:51.339Z,10.53
2018-01-21T10:56:19.402Z,11.03
2018-01-21T10:58:47.254Z,10.00
2018-01-21T11:01:14.929Z,9.10
2018-01-21T11:03:42.564Z,10.30
2018-01-21T11:06:10.242Z,10.23
2018-01-21T11:08:37.802Z,9.27
2018-01-21T11:11:05.375Z,9.60
2018-01-21T11:13:32.880Z,9.07
2018-01-21T11:16:00.426Z,10.10
2018-01-21T11:18:28.475Z,10.07
2018-01-21T11:20:56.421Z,10.03
2018-01-21T11:23:24.333Z,10.73
2018-01-21T11:25:52.480Z,8.97
2018-01-21T11:28:20.740Z,10.37
2018-01-21T11:30:49.285Z,10.53
2018-01-21T11:33:17.601Z,10.60
2018-01-21T11:35:45.936Z,11.60
2018-01-21T11:38:13.516Z,10.70
2018-01-21T11:40:41.829Z,10.87
2018-01-21T11:43:09.349Z,11.70
2018-01-21T11:45:37.676Z,10.93
2018-01-21T11:48:05.212Z,10.87
2018-01-21T11:50:32.756Z,10.43
2018-01-21T11:53:00.285Z,11.93
2018-01-21T11:55:27.997Z,11.40
2018-01-21T11:57:56.958Z,10.23
2018-01-21T12:00:29.396Z,8.10
2018-01-21T12:02:58.009Z,9.97
2018-01-21T12:05:25.727Z,10.97
2018-01-21T12:07:59.772Z,8.80
2018-01-21T12:10:27.429Z,10.47
2018-01-21T12:12:55.340Z,11.53
2018-01-21T12:15:23.721Z,9.97
2018-01-21T12:17:52.321Z,11.10
2018-01-21T12:20:21.249Z,11.83
2018-01-21T12:22:50.823Z,8.13
2018-01-21T12:25:20.646Z,8.60
2018-01-21T12:27:49.540Z,8.77
2018-01-21T12:30:17.529Z,8.37
2018-01-21T12:32:45.402Z,7.90
2018-01-21T12:35:12.921Z,9.20
2018-01-21T12:37:41.008Z,7.90
2018-01-21T12:40:08.549Z,8.63
2018-01-21T12:42:36.077Z,8.10
2018-01-21T12:45:03.618Z,8.17
2018-01-21T12:47:31.718Z,8.30
2018-01-21T12:50:00.117Z,9.07
2018-01-21T12:52:28.509Z,7.67
2018-01-21T12:54:56.486Z,8.43
2018-01-21T12:57:25.489Z,7.93
2018-01-21T12:59:55.034Z,7.07
2018-01-21T13:02:23.574Z,6.67
2018-01-21T13:04:51.642Z,7.30
2018-01-21T13:07:20.562Z,6.97
2018-01-21T13:09:49.732Z,8.60
2018-01-21T13:12:18.650Z,7.37
2018-01-21T13:14:47.105Z,6.60
2018-01-21T13:17:15.161Z,6.43
2018-01-21T13:19:42.844Z,6.73
2018-01-21T13:22:10.811Z,6.23
2018-01-21T13:24:38.381Z,5.90
2018-01-21T13:27:05.900Z,5.93
2018-01-21T13:29:34.514Z,6.10
2018-01-21T13:32:02.037Z,6.77
2018-01-21T13:34:31.085Z,6.70
2018-01-21T13:36:58.706Z,5.90
2018-01-21T13:39:26.589Z,7.70
2018-01-21T13:41:54.265Z,7.87
2018-01-21T13:44:22.580Z,7.57
2018-01-21T13:46:51.857Z,7.87
2018-01-21T13:49:21.779Z,7.83
2018-01-21T13:51:50.668Z,7.30
2018-01-21T13:54:19.439Z,8.47
2018-01-21T13:56:47.296Z,8.90
2018-01-21T13:59:16.496Z,8.93
2018-01-21T14:01:44.467Z,9.13
2018-01-21T14:04:13.061Z,9.20
2018-01-21T14:06:41.439Z,8.03
2018-01-21T14:09:08.980Z,8.60
2018-01-21T14:11:36.504Z,9.43
2018-01-21T14:14:04.527Z,8.67
2018-01-21T14:16:32.039Z,8.30
2018-01-21T14:19:00.325Z,8.47
2018-01-21T14:21:28.634Z,8.83
2018-01-21T14:23:56.907Z,7.80
2018-01-21T14:26:25.086Z,9.20
2018-01-21T14:28:53.322Z,8.10
2018-01-21T14:31:21.872Z,8.03
2018-01-21T14:33:50.326Z,7.33
2018-01-21T14:36:18.601Z,7.83
2018-01-21T14:38:46.716Z,8.07
2018-01-21T14:41:14.850Z,8.23
2018-01-21T14:43:42.615Z,7.87
2018-01-21T14:46:10.142Z,7.00
2018-01-21T14:48:38.786Z,7.47
2018-01-21T14:51:06.333Z,7.93
2018-01-21T14:53:33.865Z,7.50
2018-01-21T14:56:01.838Z,9.20
2018-01-21T14:58:29.378Z,10.40
2018-01-21T15:00:57.695Z,10.07
2018-01-21T15:03:25.560Z,8.83
2018-01-21T15:05:53.617Z,8.00
2018-01-21T15:08:22.205Z,8.73
2018-01-21T15:10:50.953Z,8.63
2018-01-21T15:13:20.175Z,8.23
2018-01-21T15:15:48.777Z,7.40
2018-01-21T15:18:18.590Z,7.07
2018-01-21T15:20:50.552Z,7.50
2018-01-21T15:23:18.727Z,7.23
2018-01-21T15:25:46.732Z,7.07
2018-01-21T15:28:14.998Z,7.30
2018-01-21T15:30:42.553Z,7.43
2018-01-21T15:33:10.254Z,7.80
2018-01-21T15:35:38.869Z,7.73
2018-01-21T15:38:06.385Z,7.87
2018-01-21T15:40:34.355Z,8.63
2018-01-21T15:43:01.886Z,8.67
2018-01-21T15:45:29.455Z,9.30
2018-01-21T15:47:57.708Z,7.70
2018-01-21T15:50:26.393Z,7.87
2018-01-21T15:52:54.568Z,8.53
2018-01-21T15:55:22.794Z,8.30
2018-01-21T15:57:51.293Z,7.23
2018-01-21T16:00:20.131Z,7.47
2018-01-21T16:02:49.312Z,7.53
2018-01-21T16:05:17.517Z,6.33
2018-01-21T16:07:45.586Z,5.90
2018-01-21T16:10:14.345Z,6.90
2018-01-21T16:12:42.697Z,6.60
2018-01-21T16:15:10.246Z,6.60
2018-01-21T16:17:38.553Z,6.70
2018-01-21T16:20:06.092Z,6.57
2018-01-21T16:22:34.424Z,5.83
2018-01-21T16:25:01.985Z,5.87
2018-01-21T16:27:29.556Z,5.90
2018-01-21T16:29:57.136Z,5.93
2018-01-21T16:32:25.358Z,6.40
2018-01-21T16:34:55.997Z,5.50
2018-01-21T16:37:36.207Z,5.80
2018-01-21T16:40:04.604Z,5.43
2018-01-21T16:42:32.497Z,5.17
2018-01-21T16:45:00.056Z,5.87
2018-01-21T16:47:27.923Z,6.40
2018-01-21T16:49:57.246Z,6.10
2018-01-21T16:52:24.946Z,7.47
2018-01-21T16:54:53.717Z,6.60
2018-01-21T16:57:23.838Z,6.50
2018-01-21T16:59:54.579Z,6.20
2018-01-21T17:02:25.857Z,5.73
2018-01-21T17:04:55.237Z,6.77
2018-01-21T17:07:22.873Z,7.40
2018-01-21T17:09:53.298Z,7.67
2018-01-21T17:12:26.948Z,7.30
2018-01-21T17:14:57.521Z,7.23
2018-01-21T17:17:26.393Z,7.77
2018-01-21T17:19:54.308Z,7.10
2018-01-21T17:22:22.128Z,6.30
2018-01-21T17:24:51.043Z,7.63
2018-01-21T17:27:19.602Z,8.03
2018-01-21T17:29:49.536Z,7.20
2018-01-21T17:32:17.410Z,8.50
2018-01-21T17:34:46.197Z,7.83
2018-01-21T17:37:14.049Z,7.73
2018-01-21T17:39:41.572Z,8.90
2018-01-21T17:42:09.881Z,8.57
2018-01-21T17:44:37.401Z,8.60
2018-01-21T17:47:05.709Z,10.67
2018-01-21T17:49:33.239Z,8.70
2018-01-21T17:52:01.876Z,11.43
2018-01-21T17:54:29.622Z,18.30
2018-01-21T17:56:57.624Z,14.37
2018-01-21T17:59:27.054Z,11.50
2018-01-21T18:01:56.606Z,23.30
2018-01-21T18:04:24.537Z,13.00
2018-01-21T18:06:53.362Z,17.17
2018-01-21T18:09:22.152Z,10.83
2018-01-21T18:11:51.540Z,13.93
2018-01-21T18:14:20.680Z,12.83
2018-01-21T18:16:51.207Z,11.47
2018-01-21T18:19:21.815Z,11.50
2018-01-21T18:21:50.101Z,13.57
2018-01-21T18:24:18.162Z,13.57
2018-01-21T18:26:46.963Z,19.90
2018-01-21T18:29:14.506Z,8.97
2018-01-21T18:31:42.030Z,9.60
2018-01-21T18:34:09.566Z,9.70
2018-01-21T18:36:37.107Z,9.87
2018-01-21T18:39:04.648Z,8.93
2018-01-21T18:41:32.517Z,9.70
2018-01-21T18:44:00.698Z,8.87
2018-01-21T18:46:29.102Z,8.33
2018-01-21T18:48:57.030Z,8.73
2018-01-21T18:51:25.853Z,8.40
2018-01-21T18:53:54.014Z,8.17
2018-01-21T18:56:22.074Z,7.47
2018-01-21T18:58:49.944Z,7.93
2018-01-21T19:01:19.800Z,7.20
2018-01-21T19:03:47.418Z,7.20
2018-01-21T19:06:16.425Z,6.87
2018-01-21T19:08:44.017Z,8.17
2018-01-21T19:11:11.508Z,7.83
2018-01-21T19:13:39.834Z,6.83
2018-01-21T19:16:07.421Z,7.23
2018-01-21T19:18:35.245Z,6.80
2018-01-21T19:21:02.778Z,7.47
2018-01-21T19:23:30.641Z,6.73
2018-01-21T19:25:58.821Z,6.80
2018-01-21T19:28:26.541Z,5.97
2018-01-21T19:30:55.131Z,6.30
2018-01-21T19:33:24.514Z,6.87
2018-01-21T19:35:52.589Z,6.07
2018-01-21T19:38:26.004Z,5.87
2018-01-21T19:41:05.599Z,6.07
2018-01-21T19:46:35.705Z,5.80
2018-01-21T19:49:04.241Z,6.57
2018-01-21T19:51:31.782Z,6.43
2018-01-21T19:53:59.372Z,6.83
2018-01-21T19:56:26.998Z,6.07
2018-01-21T19:58:54.872Z,6.60
2018-01-21T20:01:22.737Z,6.67
2018-01-21T20:03:52.590Z,8.33
2018-01-21T20:06:21.544Z,12.43
2018-01-21T20:08:49.827Z,7.50
2018-01-21T20:11:17.426Z,7.57
2018-01-21T20:13:47.192Z,7.37
2018-01-21T20:16:14.750Z,8.70
2018-01-21T20:18:42.280Z,9.13
2018-01-21T20:21:09.817Z,9.47
2018-01-21T20:23:37.389Z,6.27
2018-01-21T20:26:04.993Z,7.77
2018-01-21T20:28:32.656Z,7.03
2018-01-21T20:31:00.370Z,5.93
2018-01-21T20:33:27.971Z,6.13
2018-01-21T20:35:55.996Z,5.83
2018-01-21T20:38:23.818Z,5.70
2018-01-21T20:40:51.885Z,5.90
2018-01-21T20:43:19.905Z,5.53
2018-01-21T20:45:47.438Z,5.90
2018-01-21T20:48:15.443Z,4.40
2018-01-21T20:50:43.003Z,5.23
2018-01-21T20:53:16.591Z,4.37
2018-01-21T20:55:45.230Z,5.30
2018-01-21T20:58:13.306Z,4.80
2018-01-21T21:00:40.856Z,5.57
2018-01-21T21:03:08.494Z,4.57
2018-01-21T21:05:36.825Z,3.67
2018-01-21T21:08:04.470Z,3.63
2018-01-21T21:10:31.981Z,3.20
2018-01-21T21:13:00.441Z,3.93
2018-01-21T21:15:28.891Z,3.40
2018-01-21T21:17:59.623Z,3.67
2018-01-21T21:20:27.233Z,3.60
2018-01-21T21:22:55.825Z,3.10
2018-01-21T21:25:23.657Z,3.23
2018-01-21T21:27:52.811Z,3.03
2018-01-21T21:30:21.100Z,2.80
2018-01-21T21:32:48.878Z,2.17
2018-01-21T21:35:16.443Z,2.97
2018-01-21T21:37:43.970Z,3.10
2018-01-21T21:40:12.289Z,2.63
2018-01-21T21:42:39.824Z,2.53
2018-01-21T21:45:08.547Z,2.80
2018-01-21T21:47:36.393Z,3.30
2018-01-21T21:50:03.985Z,3.40
2018-01-21T21:52:31.519Z,2.93
2018-01-21T21:54:59.057Z,3.13
2018-01-21T21:57:26.607Z,4.03
2018-01-21T21:59:54.125Z,3.57
2018-01-21T22:02:21.650Z,3.30
2018-01-21T22:04:49.182Z,3.17
2018-01-21T22:07:17.894Z,3.40
2018-01-21T22:09:46.501Z,3.40
2018-01-21T22:12:14.391Z,3.47
2018-01-21T22:14:42.709Z,3.57
2018-01-21T22:17:10.794Z,3.40
2018-01-21T22:19:39.709Z,3.77
2018-01-21T22:22:07.860Z,2.93
2018-01-21T22:24:35.387Z,3.20
2018-01-21T22:27:02.957Z,3.10
2018-01-21T22:29:30.478Z,3.47
2018-01-21T22:31:58.264Z,3.03
2018-01-21T22:34:27.074Z,2.90
2018-01-21T22:36:54.621Z,3.30
2018-01-21T22:39:23.033Z,3.20
2018-01-21T22:41:50.557Z,3.50
2018-01-21T22:44:19.018Z,3.40
2018-01-21T22:46:47.550Z,3.40
2018-01-21T22:49:15.213Z,3.30
2018-01-21T22:51:42.844Z,3.87
2018-01-21T22:54:10.736Z,3.67
2018-01-21T22:56:39.241Z,3.27
2018-01-21T22:59:08.133Z,3.07
2018-01-21T23:01:36.772Z,3.93
2018-01-21T23:04:04.329Z,3.23
2018-01-21T23:06:32.637Z,3.90
2018-01-21T23:09:00.153Z,4.07
2018-01-21T23:11:27.679Z,3.77
2018-01-21T23:13:55.213Z,3.60
2018-01-21T23:16:22.734Z,4.27
2018-01-21T23:18:50.270Z,3.97
2018-01-21T23:21:17.901Z,3.90
2018-01-21T23:23:46.182Z,4.00
2018-01-21T23:26:13.828Z,4.30
2018-01-21T23:28:41.486Z,4.10
2018-01-21T23:31:09.249Z,4.50
2018-01-21T23:33:37.514Z,4.40
2018-01-21T23:36:05.085Z,4.37
2018-01-21T23:38:32.605Z,4.23
2018-01-21T23:41:00.729Z,4.67
2018-01-21T23:43:28.547Z,5.13
2018-01-21T23:45:56.847Z,4.83
2018-01-21T23:48:25.140Z,4.43
2018-01-21T23:50:52.656Z,4.50
2018-01-21T23:53:20.198Z,3.83
2018-01-21T23:55:47.717Z,3.20
2018-01-21T23:58:16.038Z,3.40
